createdAt,value
2022-09-23T00:01:41.146Z,50.41
2022-09-23T00:04:08.174Z,50.12
2022-09-23T00:06:35.143Z,51.21
2022-09-23T00:09:02.055Z,52.54
2022-09-23T00:11:29.893Z,52.17
2022-09-23T00:13:57.452Z,52.53
2022-09-23T00:16:24.374Z,52.60
2022-09-23T00:18:51.262Z,53.30
2022-09-23T00:21:19.869Z,53.96
2022-09-23T00:23:46.627Z,53.76
2022-09-23T00:26:13.557Z,53.26
2022-09-23T00:28:41.120Z,52.83
2022-09-23T00:31:08.072Z,53.29
2022-09-23T00:33:34.692Z,54.03
2022-09-23T00:39:18.143Z,55.26
2022-09-23T00:41:47.938Z,54.49
2022-09-23T00:44:14.856Z,53.86
2022-09-23T00:46:41.873Z,53.52
2022-09-23T00:49:08.495Z,54.11
2022-09-23T00:51:38.858Z,53.89
2022-09-23T00:54:06.435Z,53.54
2022-09-23T00:56:34.641Z,53.03
2022-09-23T00:59:03.131Z,53.40
2022-09-23T01:01:30.144Z,54.06
2022-09-23T01:04:01.932Z,55.43
2022-09-23T01:06:28.677Z,54.87
2022-09-23T01:08:55.690Z,55.76
2022-09-23T01:11:23.390Z,57.98
2022-09-23T01:13:50.761Z,57.88
2022-09-23T01:16:18.555Z,57.68
2022-09-23T01:18:45.485Z,56.87
2022-09-23T01:21:12.776Z,56.14
2022-09-23T01:23:41.847Z,56.95
2022-09-23T01:26:09.560Z,56.94
2022-09-23T01:28:36.456Z,55.83
2022-09-23T01:31:04.179Z,54.75
2022-09-23T01:33:31.758Z,55.02
2022-09-23T01:35:58.640Z,56.21
2022-09-23T01:38:25.446Z,55.64
2022-09-23T01:40:52.909Z,54.37
2022-09-23T01:43:19.542Z,55.47
2022-09-23T01:45:46.099Z,56.24
2022-09-23T01:48:12.820Z,56.88
2022-09-23T01:50:40.247Z,57.05
2022-09-23T01:53:07.184Z,57.09
2022-09-23T01:55:34.116Z,56.45
2022-09-23T01:58:01.007Z,56.06
2022-09-23T02:00:28.315Z,55.73
2022-09-23T02:03:00.080Z,56.77
2022-09-23T02:05:27.700Z,56.50
2022-09-23T02:07:54.589Z,55.10
2022-09-23T02:10:21.251Z,57.40
2022-09-23T02:12:48.149Z,57.27
2022-09-23T02:15:14.791Z,57.32
2022-09-23T02:17:45.741Z,57.50
2022-09-23T02:20:12.373Z,57.48
2022-09-23T02:22:39.815Z,57.82
2022-09-23T02:25:06.797Z,60.68
2022-09-23T02:27:34.329Z,60.73
2022-09-23T02:30:01.049Z,60.89
2022-09-23T02:32:29.453Z,61.11
2022-09-23T02:34:56.196Z,61.60
2022-09-23T02:37:24.571Z,61.10
2022-09-23T02:39:51.567Z,60.27
2022-09-23T02:42:18.455Z,60.40
2022-09-23T02:48:00.592Z,58.96
2022-09-23T02:50:27.629Z,60.87
2022-09-23T02:52:54.747Z,61.72
2022-09-23T02:55:22.131Z,60.48
2022-09-23T02:57:49.223Z,59.50
2022-09-23T03:00:16.077Z,61.36
2022-09-23T03:02:42.843Z,58.56
2022-09-23T03:05:10.446Z,60.57
2022-09-23T03:07:37.017Z,62.24
2022-09-23T03:10:04.566Z,62.01
2022-09-23T03:12:31.769Z,61.78
2022-09-23T03:14:58.708Z,62.09
2022-09-23T03:17:25.333Z,61.67
2022-09-23T03:19:52.498Z,62.67
2022-09-23T03:22:19.200Z,62.54
2022-09-23T03:24:46.080Z,60.87
2022-09-23T03:27:13.047Z,60.78
2022-09-23T03:29:39.752Z,59.70
2022-09-23T03:32:07.880Z,59.33
2022-09-23T03:37:50.295Z,59.52
2022-09-23T03:40:17.058Z,59.14
2022-09-23T03:42:44.370Z,58.71
2022-09-23T03:45:10.966Z,58.89
2022-09-23T03:47:40.835Z,58.25
2022-09-23T03:50:07.764Z,58.30
2022-09-23T03:52:35.147Z,59.12
2022-09-23T03:55:05.423Z,59.92
2022-09-23T03:57:32.070Z,61.61
2022-09-23T03:59:58.775Z,63.46
2022-09-23T04:02:25.559Z,62.36
2022-09-23T04:04:52.560Z,62.46
2022-09-23T04:07:21.049Z,62.86
2022-09-23T04:09:47.676Z,61.71
2022-09-23T04:12:14.576Z,62.82
2022-09-23T04:14:41.100Z,63.10
2022-09-23T04:17:07.992Z,62.35
2022-09-23T04:19:34.713Z,62.04
2022-09-23T04:22:01.612Z,61.08
2022-09-23T04:24:29.732Z,61.58
2022-09-23T04:33:35.183Z,59.79
2022-09-23T05:18:20.991Z,60.55
2022-09-23T05:20:48.014Z,60.72
2022-09-23T05:23:16.345Z,63.56
2022-09-23T05:25:43.219Z,64.02
2022-09-23T05:28:10.542Z,62.69
2022-09-23T05:30:37.372Z,60.29
2022-09-23T05:33:04.244Z,59.50
2022-09-23T05:35:32.376Z,58.00
2022-09-23T05:38:00.569Z,57.39
2022-09-23T05:40:27.995Z,58.84
2022-09-23T05:42:56.583Z,60.37
2022-09-23T05:45:25.478Z,60.36
2022-09-23T05:47:53.561Z,59.01
2022-09-23T05:50:21.102Z,59.34
2022-09-23T05:52:49.995Z,59.44
2022-09-23T05:55:18.792Z,57.30
2022-09-23T05:57:50.718Z,56.83
2022-09-23T06:00:18.038Z,55.29
2022-09-23T06:11:00.180Z,54.64
2022-09-23T06:13:28.071Z,53.53
2022-09-23T06:15:57.404Z,54.37
2022-09-23T06:18:28.252Z,55.66
2022-09-23T06:20:57.046Z,54.89
2022-09-23T06:33:27.689Z,55.21
2022-09-23T06:36:03.221Z,54.88
2022-09-23T06:38:30.064Z,54.14
2022-09-23T06:40:59.512Z,53.10
2022-09-23T06:43:26.487Z,52.20
2022-09-23T06:45:53.468Z,51.77
2022-09-23T06:48:22.282Z,51.29
2022-09-23T06:53:58.498Z,50.96
2022-09-23T06:56:26.038Z,52.23
2022-09-23T06:58:53.549Z,51.24
2022-09-23T07:01:23.754Z,51.38
2022-09-23T07:03:50.851Z,51.03
2022-09-23T07:06:18.492Z,50.96
2022-09-23T07:08:46.230Z,50.46
2022-09-23T07:11:17.401Z,50.65
2022-09-23T07:19:10.242Z,49.57
2022-09-23T07:21:37.684Z,49.28
2022-09-23T07:24:04.595Z,49.76
2022-09-23T07:26:32.252Z,50.38
2022-09-23T07:29:01.392Z,51.43
2022-09-23T07:31:38.380Z,50.27
2022-09-23T07:34:10.905Z,49.87
2022-09-23T07:36:37.942Z,49.63
2022-09-23T07:39:06.004Z,49.01
2022-09-23T07:41:33.327Z,49.07
2022-09-23T07:44:00.863Z,48.54
2022-09-23T07:46:27.568Z,48.20
2022-09-23T07:48:54.625Z,48.50
2022-09-23T07:51:23.503Z,48.16
2022-09-23T07:53:50.377Z,49.37
2022-09-23T07:56:17.362Z,48.60
2022-09-23T07:58:44.658Z,48.31
2022-09-23T08:01:11.535Z,48.77
2022-09-23T08:03:38.870Z,49.61
2022-09-23T08:06:05.828Z,49.75
2022-09-23T08:08:34.190Z,49.54
2022-09-23T08:11:01.417Z,49.30
2022-09-23T08:13:36.321Z,50.48
2022-09-23T08:16:06.344Z,52.84
2022-09-23T08:18:34.052Z,52.17
2022-09-23T08:21:03.602Z,50.50
2022-09-23T08:23:33.624Z,50.21
2022-09-23T08:26:01.060Z,48.20
2022-09-23T08:28:28.121Z,48.21
2022-09-23T08:30:55.602Z,47.49
2022-09-23T08:33:23.798Z,47.35
2022-09-23T08:35:51.166Z,48.03
2022-09-23T08:38:20.068Z,47.92
2022-09-23T08:40:48.166Z,47.69
2022-09-23T08:43:16.616Z,47.37
2022-09-23T08:45:47.223Z,47.00
2022-09-23T08:48:14.977Z,46.91
2022-09-23T08:53:52.356Z,46.40
2022-09-23T08:56:19.773Z,45.40
2022-09-23T08:58:47.063Z,44.95
2022-09-23T09:01:14.232Z,45.72
2022-09-23T09:03:58.570Z,45.39
2022-09-23T09:09:09.545Z,44.02
2022-09-23T09:11:45.445Z,44.60
2022-09-23T09:14:15.925Z,43.75
2022-09-23T09:19:24.883Z,42.22
2022-09-23T09:21:55.507Z,43.49
2022-09-23T09:24:28.128Z,44.78
2022-09-23T09:26:55.281Z,44.36
2022-09-23T09:29:34.963Z,44.02
2022-09-23T09:32:05.808Z,43.75
2022-09-23T09:34:33.725Z,43.50
2022-09-23T09:37:06.185Z,42.75
2022-09-23T09:39:35.637Z,41.92
2022-09-23T09:42:07.091Z,42.11
2022-09-23T09:44:36.973Z,43.30
2022-09-23T09:47:04.398Z,42.68
2022-09-23T09:49:32.675Z,43.40
2022-09-23T09:52:01.796Z,43.30
2022-09-23T09:54:31.312Z,42.82
2022-09-23T09:57:01.675Z,42.60
2022-09-23T09:59:29.558Z,43.88
2022-09-23T10:02:01.315Z,43.36
2022-09-23T10:04:29.748Z,43.94
2022-09-23T10:06:57.214Z,44.25
2022-09-23T10:09:24.102Z,43.85
2022-09-23T10:11:55.097Z,44.11
2022-09-23T10:17:14.563Z,44.77
2022-09-23T10:19:42.274Z,44.79
2022-09-23T10:25:00.873Z,43.64
2022-09-23T10:27:28.508Z,43.59
2022-09-23T10:29:55.692Z,41.56
2022-09-23T10:32:24.160Z,42.63
2022-09-23T10:34:52.006Z,41.37
2022-09-23T10:37:24.702Z,42.39
2022-09-23T10:39:52.171Z,42.66
2022-09-23T10:42:20.197Z,42.12
2022-09-23T10:44:49.076Z,41.89
2022-09-23T10:47:16.432Z,41.44
2022-09-23T10:49:46.833Z,40.60
2022-09-23T10:52:19.376Z,40.51
2022-09-23T10:54:46.981Z,40.00
2022-09-23T10:57:15.731Z,41.15
2022-09-23T10:59:44.802Z,40.60
2022-09-23T11:02:15.741Z,40.52
2022-09-23T11:04:45.030Z,40.90
2022-09-23T11:07:15.801Z,40.71
2022-09-23T11:15:44.184Z,40.74
2022-09-23T11:18:11.572Z,41.36
2022-09-23T11:20:40.144Z,40.43
2022-09-23T11:23:07.861Z,39.41
2022-09-23T11:25:34.640Z,39.17
2022-09-23T11:28:01.881Z,40.21
2022-09-23T11:30:29.088Z,40.98
2022-09-23T11:33:01.133Z,40.76
2022-09-23T11:35:27.811Z,39.94
2022-09-23T11:37:59.688Z,39.70
2022-09-23T11:43:06.783Z,40.02
2022-09-23T11:45:33.829Z,39.06
2022-09-23T11:48:09.807Z,40.36
2022-09-23T11:50:39.536Z,39.32
2022-09-23T11:53:07.500Z,38.53
2022-09-23T11:55:34.822Z,38.56
2022-09-23T12:00:45.450Z,37.83
2022-09-23T12:03:23.542Z,37.76
2022-09-23T12:09:06.798Z,37.82
2022-09-23T12:11:35.391Z,38.33
2022-09-23T12:14:07.902Z,37.76
2022-09-23T12:16:34.827Z,37.18
2022-09-23T12:19:02.753Z,36.92
2022-09-23T12:21:49.215Z,36.17
2022-09-23T12:24:21.320Z,37.39
2022-09-23T12:26:50.433Z,36.02
2022-09-23T12:29:17.630Z,35.37
2022-09-23T12:31:46.770Z,36.31
2022-09-23T12:34:13.926Z,36.10
2022-09-23T12:36:41.907Z,36.17
2022-09-23T12:39:08.573Z,36.04
2022-09-23T12:41:36.116Z,36.46
2022-09-23T12:44:03.719Z,36.84
2022-09-23T12:46:31.200Z,35.97
2022-09-23T12:48:58.768Z,35.70
2022-09-23T12:51:28.207Z,36.10
2022-09-23T12:53:58.522Z,37.01
2022-09-23T12:56:31.625Z,35.82
2022-09-23T12:59:09.642Z,35.71
2022-09-23T13:01:43.185Z,35.24
2022-09-23T13:07:06.159Z,34.85
2022-09-23T13:12:34.005Z,35.56
2022-09-23T13:15:04.594Z,34.98
2022-09-23T13:17:31.588Z,35.67
2022-09-23T13:20:00.174Z,35.53
2022-09-23T13:22:27.637Z,35.73
2022-09-23T13:24:54.741Z,34.88
2022-09-23T13:27:21.775Z,34.30
2022-09-23T13:29:50.107Z,34.30
2022-09-23T13:32:22.250Z,34.86
2022-09-23T13:34:53.168Z,35.31
2022-09-23T13:37:22.923Z,34.63
2022-09-23T13:39:59.083Z,35.23
2022-09-23T13:48:30.238Z,36.93
2022-09-23T13:51:02.918Z,36.80
2022-09-23T13:53:32.153Z,36.57
2022-09-23T13:56:00.593Z,35.51
2022-09-23T13:58:30.047Z,35.91
2022-09-23T14:00:57.852Z,35.14
2022-09-23T14:03:24.744Z,35.05
2022-09-23T14:05:52.102Z,35.09
2022-09-23T14:08:22.119Z,36.51
2022-09-23T14:10:53.106Z,37.88
2022-09-23T14:13:30.918Z,38.44
2022-09-23T14:15:59.598Z,37.89
2022-09-23T14:21:20.249Z,39.55
2022-09-23T14:23:47.623Z,39.96
2022-09-23T14:26:14.393Z,39.63
2022-09-23T14:28:41.638Z,40.43
2022-09-23T14:31:09.301Z,38.54
2022-09-23T14:33:40.514Z,37.23
2022-09-23T14:36:11.953Z,36.34
2022-09-23T14:38:42.362Z,36.16
2022-09-23T14:41:22.428Z,37.48
2022-09-23T14:44:01.264Z,37.97
2022-09-23T14:46:30.913Z,36.66
2022-09-23T14:49:00.202Z,36.58
2022-09-23T14:51:28.066Z,36.62
2022-09-23T14:53:54.743Z,36.38
2022-09-23T14:56:21.335Z,38.18
2022-09-23T14:58:52.378Z,38.99
2022-09-23T15:01:20.324Z,36.94
2022-09-23T15:03:47.415Z,36.01
2022-09-23T15:06:18.633Z,36.35
2022-09-23T15:12:25.922Z,35.82
2022-09-23T17:15:55.455Z,44.63
2022-09-23T17:18:22.844Z,43.94
2022-09-23T17:42:28.536Z,45.59
2022-09-23T17:47:59.280Z,47.51
2022-09-23T17:50:28.196Z,45.80
2022-09-23T17:52:55.644Z,45.53
2022-09-23T17:55:23.240Z,46.19
2022-09-23T17:57:54.839Z,46.11
2022-09-23T18:00:21.794Z,45.92
2022-09-23T18:02:48.360Z,47.22
2022-09-23T18:05:15.127Z,47.45
2022-09-23T18:07:42.633Z,46.20
2022-09-23T18:10:09.238Z,45.83
2022-09-23T18:12:36.119Z,46.15
2022-09-23T18:15:03.340Z,45.17
2022-09-23T18:17:30.137Z,44.82
2022-09-23T18:19:59.171Z,45.92
2022-09-23T18:22:26.223Z,45.27
2022-09-23T18:24:55.230Z,45.22
2022-09-23T18:27:23.845Z,45.60
2022-09-23T18:29:50.555Z,45.86
2022-09-23T18:32:17.668Z,45.05
2022-09-23T18:34:44.991Z,44.50
2022-09-23T18:37:15.813Z,44.30
2022-09-23T18:39:43.134Z,45.46
2022-09-23T18:42:10.694Z,44.71
2022-09-23T18:44:37.535Z,45.00
2022-09-23T18:47:06.880Z,44.79
2022-09-23T18:49:33.729Z,44.77
2022-09-23T18:52:00.517Z,45.53
2022-09-23T18:54:30.740Z,46.14
2022-09-23T18:56:59.482Z,45.25
2022-09-23T19:02:16.760Z,44.58
2022-09-23T19:04:44.490Z,44.74
2022-09-23T19:07:12.869Z,45.00
2022-09-23T19:09:41.029Z,45.03
2022-09-23T19:12:08.351Z,45.44
2022-09-23T19:14:38.647Z,45.19
2022-09-23T19:17:05.118Z,44.79
2022-09-23T19:19:32.948Z,45.30
2022-09-23T19:21:59.713Z,45.51
2022-09-23T20:02:10.259Z,45.72
2022-09-23T20:04:36.763Z,45.95
2022-09-23T20:07:03.288Z,45.42
2022-09-23T20:09:30.226Z,44.71
2022-09-23T20:11:58.250Z,44.85
2022-09-23T20:14:28.332Z,44.81
2022-09-23T20:16:55.491Z,45.38
2022-09-23T20:19:23.767Z,45.31
2022-09-23T20:21:57.845Z,46.09
2022-09-23T20:24:24.940Z,46.73
2022-09-23T20:26:51.615Z,46.80
2022-09-23T20:29:18.145Z,46.19
2022-09-23T20:31:45.170Z,46.38
2022-09-23T20:34:15.000Z,46.21
2022-09-23T20:36:42.065Z,45.70
2022-09-23T20:39:09.090Z,46.90
2022-09-23T20:41:38.770Z,46.84
2022-09-23T20:46:52.051Z,48.40
2022-09-23T20:49:22.722Z,48.53
2022-09-23T20:54:45.019Z,48.13
2022-09-23T20:57:11.783Z,48.48
2022-09-23T20:59:41.076Z,47.85
2022-09-23T21:02:07.706Z,48.70
2022-09-23T21:04:34.791Z,47.93
2022-09-23T21:07:06.165Z,47.80
2022-09-23T21:12:30.968Z,47.61
2022-09-23T21:14:57.865Z,47.53
2022-09-23T21:17:30.709Z,47.65
2022-09-23T21:19:57.733Z,47.64
2022-09-23T21:22:28.080Z,47.77
2022-09-23T21:25:26.334Z,47.59
2022-09-23T21:27:42.483Z,48.35
2022-09-23T21:30:09.969Z,49.47
2022-09-23T21:32:37.016Z,49.17
2022-09-23T21:35:04.569Z,49.91
2022-09-23T21:37:36.287Z,50.28
2022-09-23T21:40:07.536Z,51.38
2022-09-23T21:42:35.465Z,51.42
2022-09-23T21:45:03.004Z,52.07
2022-09-23T21:47:30.465Z,51.93
2022-09-23T21:49:58.218Z,52.95
2022-09-23T21:52:25.766Z,52.73
2022-09-23T21:54:52.734Z,52.10
2022-09-23T21:57:19.430Z,52.24
2022-09-23T21:59:48.036Z,52.38
2022-09-23T22:02:14.886Z,51.76
2022-09-23T22:04:41.836Z,51.16
2022-09-23T22:07:09.083Z,50.24
2022-09-23T22:09:38.816Z,49.73
2022-09-23T22:12:07.683Z,49.53
2022-09-23T22:14:35.313Z,50.73
2022-09-23T22:17:02.349Z,50.13
2022-09-23T22:19:29.982Z,49.61
2022-09-23T22:22:00.418Z,50.62
2022-09-23T22:24:29.617Z,53.25
2022-09-23T22:26:56.359Z,51.98
2022-09-23T22:29:23.824Z,52.88
2022-09-23T22:31:50.907Z,50.71
2022-09-23T22:34:48.052Z,52.37
2022-09-23T22:37:08.446Z,51.10
2022-09-23T22:39:35.838Z,52.09
2022-09-23T22:42:03.204Z,53.22
2022-09-23T22:44:30.655Z,52.92
2022-09-23T22:46:59.190Z,53.46
2022-09-23T22:49:26.694Z,52.68
2022-09-23T22:51:54.882Z,52.78
2022-09-23T22:54:21.802Z,52.92
2022-09-23T22:56:50.714Z,52.86
2022-09-23T22:59:18.094Z,52.83
2022-09-23T23:01:44.980Z,52.23
2022-09-23T23:04:12.552Z,51.61
2022-09-23T23:06:39.963Z,51.51
2022-09-23T23:09:06.587Z,51.12
2022-09-23T23:11:35.073Z,51.91
2022-09-23T23:14:02.089Z,52.52
2022-09-23T23:16:28.748Z,53.35
2022-09-23T23:18:57.043Z,52.91
2022-09-23T23:21:23.914Z,51.13
2022-09-23T23:23:57.628Z,51.63
2022-09-23T23:26:24.533Z,50.97
2022-09-23T23:28:51.459Z,50.96
2022-09-23T23:31:18.974Z,51.56
2022-09-23T23:33:46.421Z,52.52
2022-09-23T23:36:13.854Z,51.60
2022-09-23T23:38:43.013Z,51.55
2022-09-23T23:41:10.611Z,52.40
2022-09-23T23:43:39.272Z,51.29
2022-09-23T23:46:06.590Z,50.91
2022-09-23T23:48:33.581Z,51.20
2022-09-23T23:51:00.980Z,51.28
2022-09-23T23:53:28.897Z,50.97
2022-09-23T23:55:56.613Z,53.44
2022-09-23T23:58:24.001Z,53.43
